LBSF - SOFIA

Compiled: 21:32:11 on 19/01/2018

Latest METAR/SPECI Reports

METAR LBSF 192130Z 08003KT 050V110 6000 SCT061 00/M03 Q1012 NOSIG=

Previous reports

METAR LBSF 192100Z 35003KT 320V030 4000 FU SCT062 00/M03 Q1012 NOSIG=
METAR LBSF 192030Z 21003KT 160V230 9999 SCT058 01/M04 Q1012 NOSIG=
METAR LBSF 192000Z 21004KT 170V230 9999 FEW054 M00/M04 Q1012 NOSIG=
METAR LBSF 191930Z 12004KT 080V210 CAVOK 01/M03 Q1012 NOSIG=

Latest TAF report

TAF LBSF 191700Z 1918/2018 VRB04KT CAVOK TEMPO 2005/2007 4000 BR BECMG 2007/2009 BKN015 OVC050 BECMG 2009/2011 05010KT TEMPO 2011/2016 5000 RA BECMG 2016/2017 30010KT 3000 SN BKN010 OVC015=

Valid WARNINGS

No valid warnings for LBSF